createdAt,value
2023-11-15T00:02:33.455Z,10.20
2023-11-15T00:05:21.236Z,10.20
2023-11-15T00:08:10.134Z,10.20
2023-11-15T00:10:55.945Z,10.20
2023-11-15T00:13:41.633Z,10.10
2023-11-15T00:16:27.166Z,10.10
2023-11-15T00:19:14.681Z,10.00
2023-11-15T00:22:00.494Z,10.00
2023-11-15T00:24:48.565Z,10.00
2023-11-15T00:27:34.061Z,10.00
2023-11-15T00:30:21.736Z,9.90
2023-11-15T00:33:08.579Z,9.90
2023-11-15T00:35:54.298Z,9.90
2023-11-15T00:38:42.481Z,9.90
2023-11-15T00:41:30.608Z,10.00
2023-11-15T00:44:19.141Z,10.00
2023-11-15T00:47:06.009Z,10.00
2023-11-15T00:49:51.448Z,10.10
2023-11-15T00:52:37.759Z,10.10
2023-11-15T00:55:25.749Z,10.10
2023-11-15T00:58:11.387Z,10.10
2023-11-15T01:01:07.385Z,10.10
2023-11-15T01:03:59.948Z,10.10
2023-11-15T01:06:45.618Z,10.10
2023-11-15T01:09:35.248Z,10.10
2023-11-15T01:12:20.685Z,10.10
2023-11-15T01:15:07.543Z,10.20
2023-11-15T01:17:53.437Z,10.10
2023-11-15T01:20:42.951Z,10.00
2023-11-15T01:23:29.499Z,9.90
2023-11-15T01:26:15.960Z,9.90
2023-11-15T01:29:01.441Z,9.80
2023-11-15T01:31:47.275Z,9.90
2023-11-15T01:34:32.722Z,9.90
2023-11-15T01:37:18.804Z,9.90
2023-11-15T01:40:08.020Z,9.90
2023-11-15T01:42:56.162Z,9.90
2023-11-15T01:45:41.712Z,10.00
2023-11-15T01:48:28.403Z,10.10
2023-11-15T01:51:17.161Z,10.00
2023-11-15T01:54:03.287Z,10.10
2023-11-15T01:56:51.289Z,10.10
2023-11-15T01:59:37.032Z,10.10
2023-11-15T02:02:22.399Z,10.10
2023-11-15T02:05:09.476Z,10.10
2023-11-15T02:07:55.466Z,10.10
2023-11-15T02:10:44.605Z,10.10
2023-11-15T02:13:32.494Z,10.10
2023-11-15T02:16:22.425Z,10.20
2023-11-15T02:19:09.192Z,10.20
2023-11-15T02:21:54.460Z,10.10
2023-11-15T02:24:40.542Z,10.10
2023-11-15T02:27:28.297Z,10.20
2023-11-15T02:30:13.730Z,10.20
2023-11-15T02:32:59.524Z,10.20
2023-11-15T02:35:45.201Z,10.20
2023-11-15T02:38:30.816Z,10.20
2023-11-15T02:41:16.725Z,10.10
2023-11-15T02:44:05.739Z,10.20
2023-11-15T02:46:51.280Z,10.30
2023-11-15T02:49:38.096Z,10.20
2023-11-15T02:52:28.102Z,10.20
2023-11-15T02:55:17.238Z,10.10
2023-11-15T02:58:04.588Z,10.20
2023-11-15T03:00:53.059Z,10.10
2023-11-15T03:03:41.472Z,10.10
2023-11-15T03:06:27.072Z,10.20
2023-11-15T03:09:14.710Z,10.20
2023-11-15T03:12:00.772Z,10.20
2023-11-15T03:14:46.289Z,10.20
2023-11-15T03:17:33.515Z,10.20
2023-11-15T03:20:19.812Z,10.10
2023-11-15T03:23:07.813Z,10.10
2023-11-15T03:25:53.380Z,10.00
2023-11-15T03:28:39.126Z,9.80
2023-11-15T03:31:25.621Z,9.90
2023-11-15T03:34:10.991Z,9.90
2023-11-15T03:36:57.188Z,9.90
2023-11-15T03:39:43.077Z,9.80
2023-11-15T03:42:28.704Z,9.70
2023-11-15T03:45:14.368Z,9.50
2023-11-15T03:48:05.016Z,9.40
2023-11-15T03:50:50.592Z,9.30
2023-11-15T03:53:38.189Z,9.30
2023-11-15T03:56:26.035Z,9.20
2023-11-15T03:59:11.869Z,9.20
2023-11-15T04:01:58.003Z,9.30
2023-11-15T04:04:44.231Z,9.30
2023-11-15T04:07:32.349Z,9.20
2023-11-15T04:10:20.325Z,9.30
2023-11-15T04:13:05.805Z,9.30
2023-11-15T04:15:52.019Z,9.10
2023-11-15T04:18:39.517Z,9.00
2023-11-15T04:21:28.140Z,9.00
2023-11-15T04:24:14.005Z,9.10
2023-11-15T04:26:59.792Z,9.10
2023-11-15T04:29:47.421Z,9.20
2023-11-15T04:32:33.429Z,9.10
2023-11-15T04:35:19.293Z,9.20
2023-11-15T04:38:06.629Z,9.10
2023-11-15T04:40:55.280Z,8.90
2023-11-15T04:43:40.608Z,8.90
2023-11-15T04:46:26.401Z,8.80
2023-11-15T04:49:11.657Z,8.70
2023-11-15T04:51:59.797Z,8.50
2023-11-15T04:54:45.143Z,8.50
2023-11-15T04:57:31.054Z,8.70
2023-11-15T05:00:20.339Z,8.70
2023-11-15T05:03:05.998Z,8.70
2023-11-15T05:05:52.079Z,8.50
2023-11-15T05:08:37.409Z,8.30
2023-11-15T05:11:25.486Z,8.30
2023-11-15T05:14:11.064Z,8.20
2023-11-15T05:16:59.199Z,8.20
2023-11-15T05:19:47.191Z,8.20
2023-11-15T05:22:32.444Z,8.40
2023-11-15T05:25:19.127Z,8.40
2023-11-15T05:28:06.293Z,8.40
2023-11-15T05:30:51.829Z,8.40
2023-11-15T05:33:39.541Z,8.50
2023-11-15T05:36:27.048Z,8.50
2023-11-15T05:39:15.447Z,8.40
2023-11-15T05:42:01.019Z,8.30
2023-11-15T05:44:47.000Z,8.30
2023-11-15T05:47:32.412Z,8.30
2023-11-15T05:50:18.340Z,8.20
2023-11-15T05:53:03.620Z,8.10
2023-11-15T05:55:49.231Z,8.10
2023-11-15T05:58:34.791Z,8.10
2023-11-15T06:01:21.664Z,8.10
2023-11-15T06:04:08.930Z,8.10
2023-11-15T06:06:54.153Z,8.00
2023-11-15T06:09:44.352Z,8.00
2023-11-15T06:12:30.415Z,8.00
2023-11-15T06:15:16.219Z,8.00
2023-11-15T06:18:07.926Z,8.00
2023-11-15T06:20:53.468Z,8.00
2023-11-15T06:23:41.512Z,8.00
2023-11-15T06:26:28.054Z,7.90
2023-11-15T06:29:14.032Z,7.80
2023-11-15T06:32:02.031Z,7.80
2023-11-15T06:34:47.870Z,7.80
2023-11-15T06:37:35.369Z,7.80
2023-11-15T06:40:21.523Z,7.70
2023-11-15T06:43:07.321Z,7.60
2023-11-15T06:45:52.809Z,7.60
2023-11-15T06:48:38.907Z,7.50
2023-11-15T06:51:27.476Z,7.60
2023-11-15T06:54:13.095Z,7.50
2023-11-15T06:56:58.554Z,7.50
2023-11-15T06:59:44.006Z,7.50
2023-11-15T07:02:29.794Z,7.50
2023-11-15T07:05:15.657Z,7.40
2023-11-15T07:08:01.110Z,7.40
2023-11-15T07:10:46.650Z,7.40
2023-11-15T07:13:32.472Z,7.50
2023-11-15T07:16:21.263Z,7.50
2023-11-15T07:19:07.120Z,7.40
2023-11-15T07:21:56.042Z,7.40
2023-11-15T07:24:44.227Z,7.50
2023-11-15T07:27:30.248Z,7.50
2023-11-15T07:30:19.936Z,7.50
2023-11-15T07:33:05.914Z,7.60
2023-11-15T07:35:51.764Z,7.60
2023-11-15T07:38:37.465Z,7.70
2023-11-15T07:41:26.497Z,7.70
2023-11-15T07:44:14.266Z,7.70
2023-11-15T07:47:02.949Z,7.80
2023-11-15T07:49:48.582Z,7.80
2023-11-15T07:52:34.430Z,7.90
2023-11-15T07:55:23.193Z,8.00
2023-11-15T07:58:09.742Z,8.10
2023-11-15T08:00:55.541Z,8.10
2023-11-15T08:03:42.732Z,8.20
2023-11-15T08:06:28.814Z,8.10
2023-11-15T08:09:26.221Z,8.10
2023-11-15T08:12:13.322Z,8.20
2023-11-15T08:14:59.229Z,8.20
2023-11-15T08:17:48.884Z,8.30
2023-11-15T08:20:34.661Z,8.30
2023-11-15T08:23:20.234Z,8.40
2023-11-15T08:26:07.008Z,8.40
2023-11-15T08:28:55.309Z,8.50
2023-11-15T08:31:43.894Z,8.30
2023-11-15T08:34:29.297Z,8.30
2023-11-15T08:37:17.343Z,8.20
2023-11-15T08:40:15.527Z,8.30
2023-11-15T08:43:12.322Z,8.20
2023-11-15T08:45:58.884Z,8.30
2023-11-15T08:48:45.844Z,8.40
2023-11-15T08:51:33.273Z,8.30
2023-11-15T08:54:21.867Z,8.20
2023-11-15T08:57:07.192Z,8.10
2023-11-15T08:59:52.841Z,8.20
2023-11-15T09:02:40.000Z,8.20
2023-11-15T09:05:28.004Z,8.20
2023-11-15T09:08:16.363Z,8.20
2023-11-15T09:11:02.596Z,8.20
2023-11-15T09:13:48.365Z,8.30
2023-11-15T09:16:34.261Z,8.30
2023-11-15T09:19:22.399Z,8.30
2023-11-15T09:22:11.767Z,8.30
2023-11-15T09:25:04.047Z,8.40
2023-11-15T09:27:57.940Z,8.70
2023-11-15T09:30:46.972Z,8.60
2023-11-15T09:33:32.823Z,8.50
2023-11-15T09:36:18.663Z,8.60
2023-11-15T09:39:07.280Z,8.60
2023-11-15T09:41:54.902Z,8.50
2023-11-15T09:44:44.779Z,8.70
2023-11-15T09:47:31.109Z,8.60
2023-11-15T09:50:27.978Z,8.70
2023-11-15T09:53:17.288Z,8.60
2023-11-15T09:56:05.414Z,8.70
2023-11-15T09:58:51.172Z,8.80
2023-11-15T10:01:44.818Z,8.80
2023-11-15T10:04:30.666Z,9.00
2023-11-15T10:07:27.088Z,9.00
2023-11-15T10:10:23.879Z,8.90
2023-11-15T10:13:17.635Z,9.10
2023-11-15T10:16:06.709Z,9.40
2023-11-15T10:18:53.025Z,9.80
2023-11-15T10:21:38.536Z,9.40
2023-11-15T10:24:24.137Z,9.20
2023-11-15T10:27:16.173Z,9.20
2023-11-15T10:30:02.580Z,9.50
2023-11-15T10:32:50.790Z,9.50
2023-11-15T10:35:37.627Z,9.40
2023-11-15T10:38:27.311Z,9.50
2023-11-15T10:41:18.182Z,9.10
2023-11-15T10:44:08.482Z,8.90
2023-11-15T10:46:54.434Z,9.20
2023-11-15T10:49:45.596Z,9.50
2023-11-15T10:52:33.117Z,9.40
2023-11-15T10:55:19.808Z,9.10
2023-11-15T10:58:10.032Z,9.00
2023-11-15T11:01:01.275Z,8.80
2023-11-15T11:03:57.356Z,8.60
2023-11-15T11:06:51.339Z,8.60
2023-11-15T11:09:56.901Z,8.70
2023-11-15T11:12:42.460Z,8.90
2023-11-15T11:15:33.366Z,9.00
2023-11-15T11:18:20.944Z,9.00
2023-11-15T11:21:13.371Z,9.00
2023-11-15T11:24:20.265Z,9.00
2023-11-15T11:27:17.906Z,9.10
2023-11-15T11:30:13.465Z,8.90
2023-11-15T11:33:20.763Z,9.00
2023-11-15T11:36:45.587Z,9.10
2023-11-15T11:39:47.256Z,9.20
2023-11-15T11:42:33.429Z,9.00
2023-11-15T11:45:21.045Z,9.10
2023-11-15T11:48:06.574Z,8.90
2023-11-15T11:51:06.649Z,9.10
2023-11-15T11:53:54.895Z,9.10
2023-11-15T11:56:49.868Z,9.10
2023-11-15T11:59:35.493Z,9.00
2023-11-15T12:02:36.110Z,9.00
2023-11-15T12:05:27.804Z,8.90
2023-11-15T12:08:15.731Z,9.00
2023-11-15T12:11:01.961Z,9.00
2023-11-15T12:13:52.058Z,9.10
2023-11-15T12:16:40.525Z,9.10
2023-11-15T12:19:41.580Z,8.90
2023-11-15T12:22:27.479Z,9.00
2023-11-15T12:25:14.914Z,9.10
2023-11-15T12:28:04.260Z,9.20
2023-11-15T12:30:51.066Z,9.10
2023-11-15T12:33:37.428Z,9.10
2023-11-15T12:36:25.499Z,9.30
2023-11-15T12:39:13.321Z,9.20
2023-11-15T12:42:02.628Z,9.20
2023-11-15T12:44:48.538Z,9.10
2023-11-15T12:47:34.148Z,9.20
2023-11-15T12:50:22.881Z,9.20
2023-11-15T12:53:10.993Z,9.30
2023-11-15T12:55:56.810Z,9.30
2023-11-15T12:58:42.449Z,9.10
2023-11-15T13:01:29.196Z,9.20
2023-11-15T13:04:16.568Z,9.20
2023-11-15T13:07:09.747Z,9.40
2023-11-15T13:09:55.769Z,9.30
2023-11-15T13:12:41.506Z,9.30
2023-11-15T13:15:27.693Z,9.30
2023-11-15T13:18:16.023Z,9.40
2023-11-15T13:21:01.940Z,9.40
2023-11-15T13:23:48.590Z,9.40
2023-11-15T13:26:36.483Z,9.40
2023-11-15T13:29:24.821Z,9.50
2023-11-15T13:32:12.591Z,9.60
2023-11-15T13:34:58.048Z,9.50
2023-11-15T13:37:43.733Z,9.40
2023-11-15T13:40:29.409Z,9.40
2023-11-15T13:43:19.498Z,9.50
2023-11-15T13:46:09.279Z,9.40
2023-11-15T14:00:54.897Z,9.50
2023-11-15T14:03:40.416Z,9.50
2023-11-15T14:06:29.015Z,9.60
2023-11-15T14:09:15.034Z,9.50
2023-11-15T14:12:01.126Z,9.40
2023-11-15T14:14:46.854Z,9.50
2023-11-15T14:17:37.199Z,9.70
2023-11-15T14:20:25.726Z,9.70
2023-11-15T14:23:14.286Z,9.50
2023-11-15T14:26:01.899Z,9.50
2023-11-15T14:28:50.681Z,9.50
2023-11-15T14:31:38.840Z,9.40
2023-11-15T14:34:24.796Z,9.50
2023-11-15T14:37:13.525Z,9.40
2023-11-15T14:39:59.000Z,9.40
2023-11-15T14:42:47.050Z,9.40
2023-11-15T14:45:34.286Z,9.50
2023-11-15T14:48:19.978Z,9.40
2023-11-15T14:51:07.986Z,9.40
2023-11-15T14:53:56.270Z,9.40
2023-11-15T14:56:41.580Z,9.10
2023-11-15T14:59:27.712Z,8.90
2023-11-15T15:02:14.764Z,8.70
2023-11-15T15:05:00.959Z,8.60
2023-11-15T15:07:47.039Z,8.70
2023-11-15T15:10:32.413Z,8.70
2023-11-15T15:13:18.095Z,8.70
2023-11-15T15:16:05.939Z,8.80
2023-11-15T15:18:52.792Z,8.80
2023-11-15T15:21:38.403Z,8.80
2023-11-15T15:24:24.078Z,8.80
2023-11-15T15:27:11.684Z,8.70
2023-11-15T15:30:00.974Z,8.60
2023-11-15T15:32:47.937Z,8.50
2023-11-15T15:35:33.800Z,8.50
2023-11-15T15:38:19.410Z,8.50
2023-11-15T15:41:05.724Z,8.50
2023-11-15T15:43:57.056Z,8.60
2023-11-15T15:46:43.076Z,8.60
2023-11-15T15:49:28.850Z,8.60
2023-11-15T15:52:15.643Z,8.60
2023-11-15T15:55:01.281Z,8.50
2023-11-15T15:57:47.721Z,8.50
2023-11-15T16:00:35.676Z,8.60
2023-11-15T16:03:24.645Z,8.60
2023-11-15T16:06:13.256Z,8.60
2023-11-15T16:08:59.067Z,8.60
2023-11-15T16:11:48.731Z,8.60
2023-11-15T16:14:34.836Z,8.60
2023-11-15T16:17:20.686Z,8.60
2023-11-15T16:20:08.617Z,8.60
2023-11-15T16:22:59.403Z,8.70
2023-11-15T16:25:44.956Z,8.60
2023-11-15T16:28:30.731Z,8.50
2023-11-15T16:31:16.830Z,8.20
2023-11-15T16:34:02.787Z,8.00
2023-11-15T16:36:48.907Z,7.80
2023-11-15T16:39:34.601Z,7.70
2023-11-15T16:42:21.673Z,7.50
2023-11-15T16:45:08.920Z,7.50
2023-11-15T16:47:54.742Z,7.40
2023-11-15T16:50:43.424Z,7.30
2023-11-15T16:53:34.275Z,7.10
2023-11-15T16:56:20.747Z,7.00
2023-11-15T16:59:08.389Z,7.00
2023-11-15T17:01:53.790Z,7.10
2023-11-15T17:04:39.689Z,7.10
2023-11-15T17:07:25.417Z,7.00
2023-11-15T17:10:13.181Z,7.00
2023-11-15T17:12:59.266Z,6.90
2023-11-15T17:15:44.846Z,6.90
2023-11-15T17:18:31.894Z,6.90
2023-11-15T17:21:18.111Z,6.90
2023-11-15T17:24:04.631Z,6.90
2023-11-15T17:26:52.840Z,6.80
2023-11-15T17:29:39.131Z,6.80
2023-11-15T17:32:25.418Z,6.90
2023-11-15T17:35:15.781Z,6.70
2023-11-15T17:38:01.900Z,6.70
2023-11-15T17:40:47.469Z,6.50
2023-11-15T17:43:36.260Z,6.50
2023-11-15T17:46:27.229Z,6.60
2023-11-15T17:49:13.850Z,6.60
2023-11-15T17:52:01.777Z,6.40
2023-11-15T17:54:49.448Z,6.40
2023-11-15T17:57:35.921Z,6.40
2023-11-15T18:00:21.435Z,6.30
2023-11-15T18:03:10.822Z,6.20
2023-11-15T18:05:57.122Z,6.20
2023-11-15T18:08:42.783Z,6.10
2023-11-15T18:11:28.954Z,6.00
2023-11-15T18:14:14.780Z,5.90
2023-11-15T18:17:08.389Z,5.90
2023-11-15T18:19:53.835Z,5.80
2023-11-15T18:22:44.526Z,6.00
2023-11-15T18:25:30.073Z,6.00
2023-11-15T18:28:16.158Z,6.30
2023-11-15T18:31:07.205Z,6.40
2023-11-15T18:33:54.601Z,6.60
2023-11-15T18:36:44.293Z,6.70
2023-11-15T18:39:30.389Z,6.80
2023-11-15T18:42:16.681Z,6.70
2023-11-15T18:45:05.416Z,6.60
2023-11-15T18:47:55.985Z,6.60
2023-11-15T18:50:44.316Z,6.50
2023-11-15T18:53:30.051Z,6.50
2023-11-15T18:56:15.971Z,6.50
2023-11-15T18:59:03.075Z,6.50
2023-11-15T19:01:49.116Z,6.50
2023-11-15T19:04:37.566Z,6.60
2023-11-15T19:07:23.410Z,6.60
2023-11-15T19:10:10.642Z,6.50
2023-11-15T19:12:57.230Z,6.60
2023-11-15T19:15:43.199Z,6.50
2023-11-15T19:18:29.532Z,6.50
2023-11-15T19:21:21.340Z,6.60
2023-11-15T19:24:07.577Z,6.70
2023-11-15T19:26:53.343Z,6.70
2023-11-15T19:29:49.802Z,6.80
2023-11-15T19:32:35.797Z,6.90
2023-11-15T19:35:23.342Z,7.00
2023-11-15T19:38:09.178Z,7.10
2023-11-15T19:40:56.080Z,7.10
2023-11-15T19:43:44.707Z,7.20
2023-11-15T19:46:30.765Z,7.30
2023-11-15T19:49:20.815Z,7.30
2023-11-15T19:52:10.863Z,7.30
2023-11-15T19:54:57.702Z,7.40
2023-11-15T19:57:43.513Z,7.50
2023-11-15T20:00:29.508Z,7.50
2023-11-15T20:03:15.401Z,7.60
2023-11-15T20:06:04.967Z,7.70
2023-11-15T20:08:53.345Z,7.70
2023-11-15T20:11:39.043Z,7.70
2023-11-15T20:14:25.420Z,7.70
2023-11-15T20:17:10.910Z,7.80
2023-11-15T20:19:56.493Z,7.70
2023-11-15T20:22:49.285Z,7.70
2023-11-15T20:25:41.272Z,7.70
2023-11-15T20:28:36.077Z,7.70
2023-11-15T20:31:30.543Z,7.70
2023-11-15T20:34:19.834Z,7.70
2023-11-15T20:37:06.882Z,7.70
2023-11-15T20:39:53.678Z,7.70
2023-11-15T20:42:39.614Z,7.60
2023-11-15T20:45:25.283Z,7.70
2023-11-15T20:48:21.599Z,7.70
2023-11-15T20:51:07.978Z,7.60
2023-11-15T20:53:54.812Z,7.40
2023-11-15T20:56:42.870Z,7.30
2023-11-15T20:59:28.391Z,7.30
2023-11-15T21:02:16.932Z,7.40
2023-11-15T21:05:09.154Z,7.40
2023-11-15T21:08:00.447Z,7.50
2023-11-15T21:10:46.826Z,7.50
2023-11-15T21:13:32.932Z,7.60
2023-11-15T21:16:21.430Z,7.60
2023-11-15T21:19:09.927Z,7.60
2023-11-15T21:21:57.641Z,7.70
2023-11-15T21:24:43.498Z,7.70
2023-11-15T21:27:31.192Z,7.70
2023-11-15T21:30:20.316Z,7.80
2023-11-15T21:33:10.336Z,7.90
2023-11-15T21:35:56.336Z,7.90
2023-11-15T21:38:42.142Z,7.90
2023-11-15T21:41:30.263Z,7.90
2023-11-15T21:44:18.265Z,7.90
2023-11-15T21:47:03.981Z,7.90
2023-11-15T21:49:49.474Z,7.80
2023-11-15T21:52:40.634Z,7.80
2023-11-15T21:55:26.235Z,7.80
2023-11-15T21:58:13.429Z,7.80
2023-11-15T22:00:58.978Z,7.80
2023-11-15T22:03:44.525Z,7.80
2023-11-15T22:06:30.416Z,7.80
2023-11-15T22:09:17.916Z,7.80
2023-11-15T22:12:03.860Z,7.80
2023-11-15T22:14:49.337Z,7.90
2023-11-15T22:17:34.831Z,7.80
2023-11-15T22:20:21.120Z,7.80
2023-11-15T22:23:10.944Z,7.80
2023-11-15T22:25:56.660Z,7.80
2023-11-15T22:28:42.089Z,7.80
2023-11-15T22:31:27.905Z,7.80
2023-11-15T22:34:13.452Z,7.70
2023-11-15T22:36:58.929Z,7.80
2023-11-15T22:39:45.209Z,7.70
2023-11-15T22:42:31.219Z,7.60
2023-11-15T22:45:18.474Z,7.50
2023-11-15T22:48:04.285Z,7.50
2023-11-15T22:50:50.279Z,7.60
2023-11-15T22:53:37.954Z,7.60
2023-11-15T22:56:23.624Z,7.70
2023-11-15T22:59:09.366Z,7.70
2023-11-15T23:01:55.527Z,7.70
2023-11-15T23:04:45.018Z,7.70
2023-11-15T23:07:30.685Z,7.60
2023-11-15T23:10:16.853Z,7.60
2023-11-15T23:13:02.686Z,7.70
2023-11-15T23:15:52.311Z,7.80
2023-11-15T23:18:42.381Z,7.90
2023-11-15T23:21:28.036Z,7.90
2023-11-15T23:24:13.885Z,7.90
2023-11-15T23:27:00.160Z,7.90
2023-11-15T23:29:48.601Z,7.80
2023-11-15T23:32:36.982Z,7.70
2023-11-15T23:35:25.785Z,7.60
2023-11-15T23:38:11.403Z,7.40
2023-11-15T23:41:03.773Z,7.40
2023-11-15T23:43:50.751Z,7.40
2023-11-15T23:46:36.340Z,7.40
2023-11-15T23:49:22.323Z,7.50
2023-11-15T23:52:08.032Z,7.50
2023-11-15T23:54:56.238Z,7.60
2023-11-15T23:57:42.647Z,7.50
